Time;durP1;ratioP1;P1;durP2;ratioP2;P2;SDS_P1;SDS_P2;PMS_P1;PMS_P2;Temp;Humidity;BMP_temperature;BMP_pressure;BME280_temperature;BME280_humidity;BME280_pressure;Samples;Min_cycle;Max_cycle;Signal;HPM_P1;HPM_P2
2021/12/28 00:00:26;;;;;;;10.50;7.82;;;;;;;1.50;85.91;100292.69;5067610;28;20080;-83
2021/12/28 00:02:52;;;;;;;11.82;9.48;;;;;;;1.39;85.76;100284.53;5064289;28;20039;-77
2021/12/28 00:05:19;;;;;;;9.60;7.72;;;;;;;1.31;85.54;100251.50;5063966;28;20044;-76
2021/12/28 00:07:45;;;;;;;11.93;9.40;;;;;;;1.60;84.97;100244.75;5066072;28;20048;-80
2021/12/28 00:12:46;;;;;;;12.23;9.77;;;;;;;1.88;84.84;100252.56;5106367;27;20135;-73
2021/12/28 00:18:02;;;;;;;11.60;9.13;;;;;;;1.81;84.22;100255.78;5104996;28;20071;-73
2021/12/28 00:20:37;;;;;;;13.05;9.57;;;;;;;1.90;83.74;100294.03;5102710;28;20131;-76
2021/12/28 00:23:09;;;;;;;10.48;9.15;;;;;;;2.00;83.80;100290.03;5082714;28;20480;-73
2021/12/28 00:25:35;;;;;;;12.23;9.15;;;;;;;1.89;83.79;100277.59;5082884;28;20081;-78
2021/12/28 00:28:03;;;;;;;11.98;9.35;;;;;;;1.88;82.92;100260.34;5080927;28;20036;-74
2021/12/28 00:30:31;;;;;;;10.02;8.40;;;;;;;1.97;82.52;100251.13;5103275;28;20046;-77
2021/12/28 00:32:57;;;;;;;10.25;7.55;;;;;;;2.18;82.63;100292.31;5103841;28;20125;-74
2021/12/28 00:35:30;;;;;;;11.35;8.48;;;;;;;2.06;82.50;100256.56;5101605;28;20060;-73
2021/12/28 00:37:55;;;;;;;9.35;7.13;;;;;;;2.28;81.94;100289.19;5074586;28;20070;-74
2021/12/28 00:40:21;;;;;;;10.63;7.10;;;;;;;2.01;82.19;100284.88;5100109;28;20031;-74
2021/12/28 00:42:48;;;;;;;5.63;4.55;;;;;;;1.93;82.42;100269.97;5102769;28;20085;-78
2021/12/28 00:45:22;;;;;;;7.35;5.72;;;;;;;1.80;82.42;100263.50;5082050;28;20048;-74
2021/12/28 00:47:50;;;;;;;8.05;5.70;;;;;;;1.45;83.71;100271.84;5083583;28;20036;-74
2021/12/28 00:50:19;;;;;;;7.68;5.72;;;;;;;1.88;83.74;100267.22;5102838;28;20117;-74
2021/12/28 00:52:48;;;;;;;8.10;6.28;;;;;;;2.16;83.56;100297.44;5100102;28;20035;-74
2021/12/28 00:56:45;;;;;;;7.93;6.07;;;;;;;1.71;84.25;100270.94;5029174;28;20629;-77
2021/12/28 00:59:12;;;;;;;6.95;5.32;;;;;;;2.12;83.56;100285.22;5014444;28;20048;-74
2021/12/28 01:01:37;;;;;;;8.35;5.97;;;;;;;2.08;82.97;100273.03;5010698;28;20053;-84
2021/12/28 01:04:05;;;;;;;7.78;5.50;;;;;;;1.77;83.39;100264.28;5014669;28;20030;-81
2021/12/28 01:06:31;;;;;;;8.68;6.75;;;;;;;1.78;83.67;100250.53;5012291;28;20076;-78
2021/12/28 01:08:56;;;;;;;8.25;6.43;;;;;;;1.79;83.62;100261.75;5005644;28;20149;-74
2021/12/28 01:11:22;;;;;;;10.57;6.35;;;;;;;2.04;83.18;100276.38;5011319;28;20046;-75
2021/12/28 01:13:48;;;;;;;7.85;6.28;;;;;;;1.96;82.50;100286.44;5010909;28;20046;-74
2021/12/28 01:16:14;;;;;;;9.50;6.65;;;;;;;1.58;83.82;100293.81;5008320;28;20034;-77
2021/12/28 01:18:41;;;;;;;8.93;6.40;;;;;;;1.51;84.52;100288.38;5011313;28;20117;-76
2021/12/28 01:21:07;;;;;;;8.48;6.70;;;;;;;1.59;85.03;100274.00;5011432;28;20053;-84
2021/12/28 01:23:33;;;;;;;9.48;7.88;;;;;;;1.55;84.72;100272.16;5012010;28;20052;-76
2021/12/28 01:25:58;;;;;;;10.43;7.97;;;;;;;1.61;84.67;100268.03;5013658;28;20034;-74
2021/12/28 01:28:24;;;;;;;8.93;7.20;;;;;;;1.97;84.54;100279.59;5009159;28;20129;-74
2021/12/28 01:30:51;;;;;;;14.13;10.80;;;;;;;1.54;84.78;100268.66;5008557;28;20120;-75
2021/12/28 01:33:17;;;;;;;19.35;13.10;;;;;;;1.35;85.28;100250.78;5006209;28;20129;-78
2021/12/28 01:35:42;;;;;;;15.18;11.02;;;;;;;1.22;85.33;100239.16;5008554;28;20057;-74
2021/12/28 01:38:08;;;;;;;21.15;17.33;;;;;;;1.58;85.56;100277.44;5011315;28;20133;-74
2021/12/28 01:40:41;;;;;;;21.55;16.38;;;;;;;1.59;85.32;100261.97;5006446;28;20409;-74
2021/12/28 01:43:17;;;;;;;25.08;17.38;;;;;;;1.56;85.37;100263.56;5009931;28;20068;-85
2021/12/28 01:45:59;;;;;;;21.92;18.25;;;;;;;1.52;85.56;100275.50;5007660;28;20507;-77
2021/12/28 01:48:31;;;;;;;22.77;17.43;;;;;;;1.39;85.76;100255.25;5008999;28;21221;-74
2021/12/28 01:51:11;;;;;;;18.45;14.38;;;;;;;1.60;85.74;100268.88;5028975;28;20045;-75
2021/12/28 01:53:37;;;;;;;25.98;17.17;;;;;;;1.57;85.51;100258.44;5032186;28;20053;-86
2021/12/28 01:56:07;;;;;;;29.55;19.85;;;;;;;1.58;85.83;100247.25;5028454;28;20076;-75
2021/12/28 01:58:33;;;;;;;24.90;19.67;;;;;;;1.61;85.46;100244.78;5028056;28;20038;-75
2021/12/28 02:01:02;;;;;;;26.30;17.90;;;;;;;1.79;85.45;100270.38;5031548;28;20037;-76
2021/12/28 02:03:30;;;;;;;24.60;17.08;;;;;;;1.56;85.52;100255.81;5029396;28;20485;-77
2021/12/28 02:05:55;;;;;;;15.57;13.02;;;;;;;0.73;86.94;100251.19;5030224;28;20409;-74
2021/12/28 02:08:21;;;;;;;15.75;13.15;;;;;;;0.77;88.03;100265.06;5017794;28;20056;-77
2021/12/28 02:10:51;;;;;;;24.42;14.20;;;;;;;0.73;88.70;100261.53;5016676;28;20599;-77
2021/12/28 02:13:17;;;;;;;20.85;15.48;;;;;;;0.68;88.57;100239.81;5015978;28;20041;-74
2021/12/28 02:15:46;;;;;;;19.13;14.70;;;;;;;1.27;88.35;100266.03;5014608;28;20112;-74
2021/12/28 02:18:13;;;;;;;19.55;13.98;;;;;;;0.97;88.06;100233.13;5047435;28;20053;-75
2021/12/28 02:20:42;;;;;;;28.65;15.98;;;;;;;1.34;87.16;100254.22;5016125;28;20041;-74
2021/12/28 02:23:08;;;;;;;22.23;15.35;;;;;;;1.17;87.12;100226.06;5006631;28;20050;-75
2021/12/28 02:25:35;;;;;;;18.23;15.43;;;;;;;1.31;86.66;100242.06;4995367;28;20042;-75
2021/12/28 02:28:02;;;;;;;19.10;14.85;;;;;;;1.40;86.82;100244.94;4978574;28;20100;-73
2021/12/28 02:30:28;;;;;;;16.27;14.32;;;;;;;1.32;86.65;100232.59;4994000;28;20042;-76
2021/12/28 02:32:54;;;;;;;22.02;17.05;;;;;;;1.40;86.40;100244.94;4995147;28;20049;-74
2021/12/28 02:35:23;;;;;;;19.58;17.15;;;;;;;1.57;86.19;100260.13;4998329;28;20049;-81
2021/12/28 02:37:51;;;;;;;24.80;17.35;;;;;;;1.36;86.47;100256.00;5029897;28;20487;-77
2021/12/28 02:40:21;;;;;;;24.65;17.80;;;;;;;1.53;86.32;100233.31;4995010;28;20026;-74
2021/12/28 02:42:48;;;;;;;25.65;17.30;;;;;;;1.59;86.14;100268.81;4999873;28;20093;-74
2021/12/28 02:45:32;;;;;;;23.85;16.98;;;;;;;1.39;86.34;100248.34;4992253;28;20045;-75
2021/12/28 02:47:58;;;;;;;23.48;17.48;;;;;;;1.39;86.50;100240.59;4997899;28;20053;-74
2021/12/28 02:50:36;;;;;;;23.92;15.85;;;;;;;1.64;86.39;100249.19;4991460;28;20047;-82
2021/12/28 02:53:02;;;;;;;21.80;17.77;;;;;;;1.15;86.43;100230.31;4995953;28;20064;-76
2021/12/28 02:55:31;;;;;;;22.52;15.05;;;;;;;1.32;86.23;100233.47;4993243;28;20054;-80
2021/12/28 02:58:03;;;;;;;24.80;17.15;;;;;;;1.72;85.95;100244.28;4997596;28;20486;-85
2021/12/28 03:00:34;;;;;;;23.92;16.33;;;;;;;1.59;85.47;100215.44;4997887;28;20068;-84
2021/12/28 03:03:09;;;;;;;24.13;16.13;;;;;;;1.47;85.30;100221.06;4994832;28;20128;-76
2021/12/28 03:05:36;;;;;;;24.23;18.52;;;;;;;1.63;85.38;100222.44;4995668;28;20072;-74
2021/12/28 03:08:05;;;;;;;23.20;18.60;;;;;;;1.73;nan;100240.84;4998588;28;20149;-75
2021/12/28 03:10:30;;;;;;;19.75;15.45;;;;;;;1.47;85.35;100222.75;4992839;28;20038;-75
2021/12/28 03:12:56;;;;;;;19.27;15.43;;;;;;;1.04;86.09;100213.53;4995792;28;20088;-75
2021/12/28 03:15:27;;;;;;;21.25;14.57;;;;;;;1.75;85.80;100244.34;4994374;28;20050;-85
2021/12/28 03:17:52;;;;;;;20.00;17.02;;;;;;;1.46;85.69;100229.63;4991739;28;20129;-75
2021/12/28 03:20:41;;;;;;;15.70;13.77;;;;;;;1.41;85.90;100246.72;5031152;27;20133;-75
2021/12/28 03:23:07;;;;;;;19.52;15.75;;;;;;;1.46;85.96;100259.78;5006227;28;20052;-74
2021/12/28 03:25:33;;;;;;;19.98;15.65;;;;;;;1.25;86.75;100250.47;5009080;28;20050;-80
2021/12/28 03:28:00;;;;;;;17.77;15.02;;;;;;;1.51;85.71;100237.56;5004269;28;20033;-76
2021/12/28 03:32:46;;;;;;;23.80;17.40;;;;;;;0.74;88.19;100234.00;5041617;27;1385510;-77
2021/12/28 03:35:13;;;;;;;20.52;15.55;;;;;;;1.11;88.12;100253.41;5073826;28;20040;-74
2021/12/28 03:37:39;;;;;;;29.35;16.23;;;;;;;1.08;87.59;100259.34;5086848;28;20424;-76
2021/12/28 03:40:11;;;;;;;17.70;14.45;;;;;;;1.03;87.26;100238.50;5071705;28;20472;-77
2021/12/28 03:42:37;;;;;;;20.23;14.48;;;;;;;0.72;88.23;100262.31;5069416;28;20070;-76
2021/12/28 03:45:06;;;;;;;19.42;15.15;;;;;;;0.59;88.77;100235.19;5087736;28;20040;-77
2021/12/28 03:47:34;;;;;;;18.67;14.85;;;;;;;0.49;89.20;100230.50;5093924;28;20044;-85
2021/12/28 03:50:00;;;;;;;24.40;17.17;;;;;;;0.93;88.49;100267.41;5093671;28;20048;-79
2021/12/28 03:54:51;;;;;;;20.75;14.88;;;;;;;1.01;87.55;100259.94;5043329;27;20186;-74
2021/12/28 03:57:16;;;;;;;26.20;17.02;;;;;;;1.10;87.39;100254.19;5038340;28;20049;-75
2021/12/28 03:59:42;;;;;;;18.55;14.88;;;;;;;1.01;87.17;100242.72;5039716;28;20125;-74
2021/12/28 04:02:08;;;;;;;17.35;14.52;;;;;;;0.90;87.33;100269.88;5036427;28;20037;-80
2021/12/28 04:04:34;;;;;;;20.00;14.43;;;;;;;0.81;87.25;100257.50;5041614;28;20518;-76
2021/12/28 04:07:06;;;;;;;21.05;15.73;;;;;;;0.81;87.14;100233.38;5041015;28;20550;-75
2021/12/28 04:09:58;;;;;;;18.00;14.25;;;;;;;0.70;88.52;100263.97;5040295;28;20047;-73
2021/12/28 04:12:23;;;;;;;17.52;13.77;;;;;;;0.60;88.85;100244.69;5042835;28;21645;-76
2021/12/28 04:16:47;;;;;;;21.75;15.93;;;;;;;0.92;88.50;100255.31;5119319;27;20527;-73
2021/12/28 04:19:13;;;;;;;27.20;18.85;;;;;;;0.52;89.03;100224.59;5075884;28;20033;-86
2021/12/28 04:21:38;;;;;;;30.73;18.95;;;;;;;0.37;89.86;100250.69;5085413;28;20032;-80
2021/12/28 04:24:04;;;;;;;28.83;18.77;;;;;;;0.38;90.78;100234.38;5080027;28;22272;-76
2021/12/28 04:26:47;;;;;;;38.80;21.60;;;;;;;0.63;90.92;100256.81;5101696;27;20619;-75
2021/12/28 04:29:13;;;;;;;33.90;22.58;;;;;;;0.80;90.58;100244.56;5092694;28;20054;-76
2021/12/28 04:31:38;;;;;;;31.08;20.92;;;;;;;0.68;90.47;100255.31;5095226;28;20044;-77
2021/12/28 04:34:04;;;;;;;45.08;22.38;;;;;;;1.05;90.36;100261.78;5094700;28;20038;-76
2021/12/28 04:36:30;;;;;;;55.15;19.08;;;;;;;1.08;89.89;100272.25;5095190;28;20517;-76
2021/12/28 04:38:55;;;;;;;27.42;17.73;;;;;;;0.61;89.95;100267.09;5094834;28;20672;-76
2021/12/28 04:41:21;;;;;;;24.90;16.23;;;;;;;1.16;89.76;100267.34;5095108;28;20056;-75
2021/12/28 04:43:48;;;;;;;26.75;13.80;;;;;;;0.93;89.27;100261.34;5076779;28;20115;-75
2021/12/28 04:48:48;;;;;;;24.73;13.43;;;;;;;1.58;87.63;100292.94;5053796;28;21000;-75
2021/12/28 04:51:14;;;;;;;25.30;12.77;;;;;;;1.35;86.98;100281.81;5019997;27;20034;-74
2021/12/28 04:53:39;;;;;;;43.10;13.90;;;;;;;1.22;87.29;100276.22;5013644;28;20064;-77
2021/12/28 04:56:07;;;;;;;27.98;10.77;;;;;;;1.21;87.38;100284.78;5012135;28;20037;-78
2021/12/28 04:58:32;;;;;;;21.15;11.88;;;;;;;1.54;86.66;100301.41;5014039;28;20049;-74
2021/12/28 05:00:58;;;;;;;29.80;12.15;;;;;;;1.21;86.93;100270.97;5012725;28;20444;-75
2021/12/28 05:03:24;;;;;;;16.60;11.20;;;;;;;1.33;86.66;100271.41;4993227;28;20049;-73
2021/12/28 05:05:51;;;;;;;22.70;12.23;;;;;;;1.33;86.51;100270.53;4995513;28;20050;-77
2021/12/28 05:10:49;;;;;;;29.60;13.05;;;;;;;1.61;86.53;100288.72;4937971;28;20630;-80
2021/12/28 05:13:18;;;;;;;18.75;9.90;;;;;;;1.50;86.22;100287.50;4922961;28;20048;-76
2021/12/28 05:15:45;;;;;;;39.25;15.20;;;;;;;1.56;86.13;100287.69;4928455;29;20067;-82
2021/12/28 05:20:48;;;;;;;30.90;16.80;;;;;;;1.42;87.78;100300.16;5081687;27;20630;-76
2021/12/28 05:23:13;;;;;;;32.75;15.07;;;;;;;1.74;86.83;100302.09;5065805;28;20056;-75
2021/12/28 05:25:40;;;;;;;28.45;18.13;;;;;;;1.74;86.04;100309.88;5061175;28;20473;-75
2021/12/28 05:28:07;;;;;;;29.10;18.65;;;;;;;1.65;85.81;100300.06;5056400;28;20033;-74
2021/12/28 05:30:36;;;;;;;34.67;20.48;;;;;;;1.74;85.71;100310.72;5060802;28;20045;-74
2021/12/28 05:33:04;;;;;;;29.23;18.15;;;;;;;1.76;85.52;100305.63;5059761;28;20033;-75
2021/12/28 05:35:30;;;;;;;33.25;19.92;;;;;;;1.63;85.70;100302.59;5057028;28;20047;-75
2021/12/28 05:37:56;;;;;;;37.85;21.40;;;;;;;1.45;85.62;100308.03;5064798;28;20048;-75
2021/12/28 05:40:22;;;;;;;35.78;20.33;;;;;;;1.66;86.30;100323.41;5061893;28;20039;-77
2021/12/28 05:44:48;;;;;;;45.38;23.77;;;;;;;1.26;86.82;100309.09;5015114;27;20623;-79
2021/12/28 05:47:14;;;;;;;59.75;25.40;;;;;;;1.24;87.58;100320.19;4996525;28;20452;-77
2021/12/28 05:49:41;;;;;;;43.00;23.60;;;;;;;1.49;86.77;100309.00;4996567;28;20123;-78
2021/12/28 05:52:07;;;;;;;36.90;23.65;;;;;;;1.31;87.70;100310.94;4999021;28;20130;-76
2021/12/28 05:54:32;;;;;;;38.47;23.08;;;;;;;1.67;87.23;100312.22;4996498;28;20042;-75
2021/12/28 05:57:01;;;;;;;44.97;25.83;;;;;;;1.69;86.51;100296.78;4995655;28;20084;-75
2021/12/28 05:59:29;;;;;;;59.55;23.35;;;;;;;1.29;86.70;100303.16;5007874;28;20068;-78
2021/12/28 06:01:55;;;;;;;33.92;22.45;;;;;;;1.41;87.17;100300.13;5014796;28;20046;-80
2021/12/28 06:04:47;;;;;;;40.25;23.92;;;;;;;1.00;88.35;100313.28;5042822;27;20627;-78
2021/12/28 06:07:13;;;;;;;41.10;24.88;;;;;;;1.75;87.62;100351.28;5014100;28;20045;-74
2021/12/28 06:09:41;;;;;;;38.42;25.83;;;;;;;1.55;86.66;100308.34;5014215;28;20505;-77
2021/12/28 06:12:07;;;;;;;47.17;23.08;;;;;;;1.76;86.49;100337.53;5013943;28;20049;-75
2021/12/28 06:14:33;;;;;;;57.25;25.20;;;;;;;1.26;86.99;100345.28;5012080;28;20041;-80
2021/12/28 06:16:59;;;;;;;46.00;24.35;;;;;;;1.05;87.76;100316.03;5012883;28;20046;-76
2021/12/28 06:19:28;;;;;;;49.58;27.52;;;;;;;1.65;87.67;100328.53;5011867;28;20124;-75
2021/12/28 06:21:54;;;;;;;45.83;26.60;;;;;;;1.83;86.40;100338.63;5013377;28;20071;-77
2021/12/28 06:24:19;;;;;;;37.42;25.75;;;;;;;1.91;85.81;100332.00;5013197;28;20142;-75
2021/12/28 06:26:45;;;;;;;45.75;25.55;;;;;;;1.96;85.41;100338.19;5012121;28;20053;-74
2021/12/28 06:29:11;;;;;;;36.08;23.77;;;;;;;1.93;85.29;100324.28;5010185;28;20034;-74
2021/12/28 06:31:37;;;;;;;41.15;26.02;;;;;;;1.92;85.10;100327.69;5015119;28;20137;-76
2021/12/28 06:34:07;;;;;;;43.20;26.45;;;;;;;1.40;86.35;100353.50;5015652;28;20323;-77
2021/12/28 06:36:32;;;;;;;40.83;25.50;;;;;;;1.63;86.96;100359.50;5012689;28;20812;-74
2021/12/28 06:38:58;;;;;;;43.70;27.83;;;;;;;1.38;87.45;100328.44;5012426;28;20046;-75
2021/12/28 06:41:29;;;;;;;41.85;26.42;;;;;;;1.91;86.52;100363.03;5013049;28;20048;-75
2021/12/28 06:43:55;;;;;;;36.20;25.38;;;;;;;1.86;85.88;100344.78;5012392;28;20397;-75
2021/12/28 06:46:21;;;;;;;43.50;29.73;;;;;;;1.82;85.95;100342.03;5013030;28;20033;-82
2021/12/28 06:48:47;;;;;;;42.63;26.60;;;;;;;1.70;86.47;100326.97;5012917;28;20448;-80
2021/12/28 06:51:13;;;;;;;48.35;28.10;;;;;;;1.82;85.71;100352.38;5011237;28;20045;-74
2021/12/28 06:53:40;;;;;;;38.75;26.65;;;;;;;1.74;85.93;100361.59;5013478;28;20045;-83
2021/12/28 06:56:06;;;;;;;42.50;27.40;;;;;;;1.23;86.79;100346.84;5012203;28;20076;-74
2021/12/28 06:58:34;;;;;;;35.88;24.27;;;;;;;0.67;87.89;100348.19;5012631;28;20042;-74
2021/12/28 07:01:02;;;;;;;37.78;25.80;;;;;;;0.90;89.03;100380.94;5013958;28;20026;-73
2021/12/28 07:03:30;;;;;;;44.30;24.40;;;;;;;1.49;88.59;100378.81;5011967;28;20111;-83
2021/12/28 07:05:56;;;;;;;45.42;24.90;;;;;;;1.56;87.13;100370.44;5012995;28;20053;-75
2021/12/28 07:08:22;;;;;;;37.47;21.92;;;;;;;1.73;86.26;100339.13;5012990;28;20096;-66
2021/12/28 07:10:50;;;;;;;32.40;21.60;;;;;;;1.94;85.08;100365.72;5011428;28;20038;-69
2021/12/28 07:13:15;;;;;;;31.77;19.67;;;;;;;1.10;86.00;100361.03;5009953;28;21412;-66
2021/12/28 07:15:41;;;;;;;38.80;23.48;;;;;;;0.98;86.93;100371.81;5000203;28;20514;-66
2021/12/28 07:18:10;;;;;;;40.30;23.98;;;;;;;1.57;86.90;100379.06;4997797;28;20046;-66
2021/12/28 07:20:36;;;;;;;33.85;22.65;;;;;;;1.42;86.74;100382.00;4996632;28;20073;-72
2021/12/28 07:23:02;;;;;;;36.80;23.58;;;;;;;1.61;86.66;100368.91;4997989;28;21097;-69
2021/12/28 07:25:29;;;;;;;41.85;22.42;;;;;;;1.59;86.19;100357.66;4997078;28;20042;-69
2021/12/28 07:27:54;;;;;;;41.40;20.23;;;;;;;1.54;86.21;100353.13;4998083;28;20057;-72
2021/12/28 07:30:20;;;;;;;42.28;21.80;;;;;;;1.77;85.63;100357.38;4997287;28;20228;-69
2021/12/28 07:32:45;;;;;;;36.88;23.52;;;;;;;1.76;85.31;100345.28;4998311;28;20140;-69
2021/12/28 07:35:13;;;;;;;30.95;19.73;;;;;;;1.63;85.84;100363.78;4997026;28;20042;-79
2021/12/28 07:37:42;;;;;;;25.30;19.27;;;;;;;1.55;87.16;100357.50;5003873;28;20038;-75
2021/12/28 07:40:09;;;;;;;33.22;19.23;;;;;;;1.51;86.21;100364.25;5000171;28;20048;-74
2021/12/28 07:42:35;;;;;;;37.47;21.75;;;;;;;0.76;88.34;100348.56;4999916;28;20185;-72
2021/12/28 07:45:09;;;;;;;27.55;19.63;;;;;;;1.74;87.67;100371.94;4999933;28;20062;-77
2021/12/28 07:48:50;;;;;;;30.40;19.80;;;;;;;1.75;85.67;100366.78;5042185;28;20130;-74
2021/12/28 07:51:16;;;;;;;30.13;20.25;;;;;;;1.58;86.25;100358.47;4998398;28;20041;-75
2021/12/28 07:53:42;;;;;;;30.73;18.67;;;;;;;1.51;85.74;100356.47;5013705;28;20051;-75
2021/12/28 07:56:07;;;;;;;26.95;20.10;;;;;;;1.62;85.18;100370.69;4982083;28;20052;-75
2021/12/28 07:58:33;;;;;;;27.70;18.88;;;;;;;1.87;85.04;100374.09;4985750;28;20399;-81
2021/12/28 08:00:59;;;;;;;28.33;18.23;;;;;;;1.93;85.04;100396.72;4980684;28;20030;-74
2021/12/28 08:03:29;;;;;;;28.90;19.13;;;;;;;1.76;85.00;100386.69;4965023;28;20172;-77
2021/12/28 08:05:54;;;;;;;30.35;18.75;;;;;;;1.77;84.93;100365.16;5009217;28;20100;-81
2021/12/28 08:10:48;;;;;;;26.00;16.58;;;;;;;1.59;84.59;100387.78;5101861;27;21179;-77
2021/12/28 08:13:16;;;;;;;29.58;18.42;;;;;;;0.36;88.11;100357.31;5086153;28;20028;-72
2021/12/28 08:15:42;;;;;;;25.02;17.75;;;;;;;1.22;88.89;100391.63;5084656;28;20087;-74
2021/12/28 08:18:09;;;;;;;32.08;17.50;;;;;;;0.68;88.36;100373.19;5086909;28;20047;-71
2021/12/28 08:20:38;;;;;;;28.58;18.05;;;;;;;1.36;87.75;100390.44;5086751;28;20051;-79
2021/12/28 08:23:04;;;;;;;25.15;15.73;;;;;;;1.33;86.21;100366.16;5086404;28;20561;-70
2021/12/28 08:25:30;;;;;;;24.70;14.40;;;;;;;1.55;86.18;100397.16;5087356;28;20044;-76
2021/12/28 08:27:57;;;;;;;30.17;14.00;;;;;;;1.64;85.74;100387.13;5080750;28;20051;-76
2021/12/28 08:32:43;;;;;;;23.35;13.35;;;;;;;1.82;84.64;100375.66;5034617;28;20635;-70
2021/12/28 08:35:09;;;;;;;25.50;13.00;;;;;;;2.00;84.60;100386.63;5013555;28;20059;-77
2021/12/28 08:37:35;;;;;;;23.77;12.77;;;;;;;1.47;85.46;100383.94;5009770;28;20066;-73
2021/12/28 08:40:01;;;;;;;21.80;12.07;;;;;;;1.47;85.76;100377.88;5012699;28;20061;-70
2021/12/28 08:42:27;;;;;;;24.42;12.93;;;;;;;1.71;85.26;100364.06;5032863;28;20041;-70
2021/12/28 08:44:53;;;;;;;22.77;13.68;;;;;;;1.60;85.49;100368.88;5031558;28;20568;-70
2021/12/28 08:47:22;;;;;;;26.08;12.80;;;;;;;1.74;85.56;100361.59;5034117;28;20045;-74
2021/12/28 08:49:48;;;;;;;24.95;14.50;;;;;;;1.74;85.08;100351.25;5034170;28;20451;-70
2021/12/28 08:52:13;;;;;;;23.50;13.18;;;;;;;1.42;85.50;100371.66;5033359;28;20042;-70
2021/12/28 08:54:39;;;;;;;20.60;12.05;;;;;;;1.56;85.84;100356.66;5036198;28;20044;-70
2021/12/28 08:57:04;;;;;;;22.17;14.30;;;;;;;1.75;85.21;100358.16;5034424;28;20056;-72
2021/12/28 08:59:30;;;;;;;22.88;15.32;;;;;;;1.78;84.52;100373.78;5034706;28;20048;-73
2021/12/28 09:01:56;;;;;;;26.00;13.73;;;;;;;1.97;84.52;100377.91;5034293;28;20214;-73
2021/12/28 09:04:22;;;;;;;27.33;15.98;;;;;;;1.94;83.48;100376.06;5035533;28;20035;-72
2021/12/28 09:06:48;;;;;;;19.83;13.60;;;;;;;0.38;86.25;100377.22;5034988;28;20029;-72
2021/12/28 09:09:15;;;;;;;29.45;15.15;;;;;;;0.21;88.92;100378.19;5036960;28;21678;-76
2021/12/28 09:11:42;;;;;;;23.40;14.55;;;;;;;1.01;88.36;100361.56;5043349;28;20056;-83
2021/12/28 09:14:07;;;;;;;20.58;13.35;;;;;;;1.63;86.15;100387.06;5035094;28;20159;-77
2021/12/28 09:16:33;;;;;;;21.08;14.73;;;;;;;1.52;85.38;100355.63;5033324;28;21529;-73
2021/12/28 09:18:59;;;;;;;21.30;13.38;;;;;;;1.31;85.20;100353.19;5035327;28;20404;-72
2021/12/28 09:21:24;;;;;;;17.83;12.48;;;;;;;1.43;85.42;100343.28;5035332;28;20049;-73
2021/12/28 09:23:50;;;;;;;16.63;12.23;;;;;;;1.52;85.37;100355.63;5028257;28;20744;-72
2021/12/28 09:26:15;;;;;;;18.15;13.75;;;;;;;0.49;87.02;100371.56;5025264;28;20041;-79
2021/12/28 09:28:41;;;;;;;19.75;13.80;;;;;;;1.25;86.99;100361.59;5014005;28;20057;-79
2021/12/28 09:31:07;;;;;;;23.10;15.02;;;;;;;1.61;85.55;100381.81;5016933;28;20489;-82
2021/12/28 09:33:32;;;;;;;21.02;14.38;;;;;;;1.46;85.67;100353.72;5026896;28;20068;-77
2021/12/28 09:36:00;;;;;;;23.27;14.18;;;;;;;1.61;85.21;100360.25;5023764;28;23027;-74
2021/12/28 09:38:26;;;;;;;21.67;14.05;;;;;;;1.41;85.84;100373.38;5028836;28;20037;-77
2021/12/28 09:40:51;;;;;;;17.13;11.88;;;;;;;1.14;85.38;100369.78;5026156;28;20037;-76
2021/12/28 09:44:51;;;;;;;17.42;12.07;;;;;;;1.27;87.06;100382.34;5033770;27;20140;-77
2021/12/28 09:47:18;;;;;;;22.35;14.15;;;;;;;1.51;85.39;100359.06;5026799;28;20128;-77
2021/12/28 09:49:46;;;;;;;17.50;12.68;;;;;;;1.64;84.71;100350.94;5028262;28;20084;-75
2021/12/28 09:52:12;;;;;;;17.38;12.30;;;;;;;1.51;84.37;100363.38;5026755;28;20041;-69
2021/12/28 09:54:38;;;;;;;20.40;10.63;;;;;;;1.27;85.21;100351.31;5028322;28;20041;-74
2021/12/28 09:57:04;;;;;;;17.70;12.13;;;;;;;1.26;85.04;100346.97;5023651;28;20501;-72
2021/12/28 09:59:30;;;;;;;15.98;12.48;;;;;;;1.30;85.08;100377.28;5028678;28;20091;-72
2021/12/28 10:01:59;;;;;;;16.85;13.88;;;;;;;0.85;86.14;100356.66;5047123;28;20041;-72
2021/12/28 10:04:26;;;;;;;16.92;11.50;;;;;;;0.82;86.30;100360.00;5029051;28;20029;-77
2021/12/28 10:06:51;;;;;;;18.58;12.38;;;;;;;1.19;86.85;100379.44;5023631;28;20760;-83
2021/12/28 10:09:20;;;;;;;16.70;12.43;;;;;;;1.31;86.22;100393.66;5026110;28;20091;-81
2021/12/28 10:11:49;;;;;;;17.02;11.65;;;;;;;0.92;86.92;100381.03;5031132;28;20037;-77
2021/12/28 10:14:20;;;;;;;22.25;14.43;;;;;;;1.25;86.49;100384.84;5023534;28;20106;-73
2021/12/28 10:16:51;;;;;;;14.15;11.85;;;;;;;1.34;85.95;100384.31;5028792;28;20083;-75
2021/12/28 10:19:35;;;;;;;20.60;11.60;;;;;;;1.52;85.16;100368.56;5028965;28;20043;-74
2021/12/28 10:22:22;;;;;;;15.50;10.80;;;;;;;1.75;84.25;100351.28;5028296;28;20044;-72
2021/12/28 10:24:53;;;;;;;14.75;9.65;;;;;;;1.69;83.75;100343.31;5028608;28;20130;-76
2021/12/28 10:27:21;;;;;;;23.98;11.35;;;;;;;1.25;83.62;100348.66;5027248;28;20061;-90
2021/12/28 10:29:47;;;;;;;14.57;11.00;;;;;;;1.50;84.49;100359.91;5026588;28;20485;-79
2021/12/28 10:32:22;;;;;;;18.98;10.38;;;;;;;1.39;84.64;100338.84;5030105;28;20056;-76
2021/12/28 10:34:54;;;;;;;14.75;9.68;;;;;;;1.37;83.41;100358.56;5062330;28;20272;-78
2021/12/28 10:37:24;;;;;;;25.23;11.75;;;;;;;1.34;84.87;100340.38;5032882;28;20037;-76
2021/12/28 10:39:54;;;;;;;20.15;11.63;;;;;;;1.47;84.55;100368.44;5032351;28;20523;-77
2021/12/28 10:44:57;;;;;;;21.38;12.73;;;;;;;1.50;84.04;100356.41;5015813;28;21047;-72
2021/12/28 10:47:25;;;;;;;24.63;14.93;;;;;;;1.51;84.04;100358.19;5002867;28;20662;-72
2021/12/28 10:49:51;;;;;;;20.27;12.77;;;;;;;1.59;84.78;100356.75;5006578;28;20129;-74
2021/12/28 10:55:22;;;;;;;22.25;12.18;;;;;;;0.87;86.48;100354.09;5051330;28;20632;-75
2021/12/28 10:57:49;;;;;;;21.00;14.02;;;;;;;0.96;86.08;100357.94;5017693;28;20048;-77
2021/12/28 11:00:36;;;;;;;17.85;13.45;;;;;;;1.27;85.98;100344.44;5050687;28;20041;-79
2021/12/28 11:03:26;;;;;;;19.80;13.20;;;;;;;1.49;85.02;100342.63;5055934;28;20058;-80
2021/12/28 11:05:54;;;;;;;17.38;13.05;;;;;;;0.60;86.53;100342.78;5054146;28;20061;-79
2021/12/28 11:08:21;;;;;;;23.42;13.25;;;;;;;0.31;87.87;100351.09;5053122;28;20033;-76
2021/12/28 11:10:51;;;;;;;21.27;14.27;;;;;;;1.03;86.60;100353.84;5059246;28;20091;-74
2021/12/28 11:13:29;;;;;;;20.77;15.57;;;;;;;1.03;86.98;100357.34;5056548;28;20051;-82
2021/12/28 11:15:56;;;;;;;23.38;15.82;;;;;;;1.27;84.74;100351.31;5054474;28;20060;-76
2021/12/28 11:18:41;;;;;;;20.52;14.48;;;;;;;1.29;85.04;100328.09;5053096;28;20041;-76
2021/12/28 11:21:17;;;;;;;21.90;13.95;;;;;;;1.78;84.50;100366.03;5048106;28;20060;-78
2021/12/28 11:23:45;;;;;;;23.38;14.32;;;;;;;1.30;84.22;100330.75;5046563;28;20060;-82
2021/12/28 11:26:20;;;;;;;16.50;12.48;;;;;;;1.38;84.11;100342.25;5047782;28;20481;-78
2021/12/28 11:29:01;;;;;;;22.55;14.50;;;;;;;1.59;83.83;100336.06;5042997;28;20040;-75
2021/12/28 11:31:50;;;;;;;22.98;15.23;;;;;;;1.65;83.34;100310.41;5047468;28;20036;-75
2021/12/28 11:36:58;;;;;;;23.38;14.60;;;;;;;1.46;83.10;100317.53;5045929;27;20641;-77
2021/12/28 11:39:34;;;;;;;21.67;14.25;;;;;;;2.03;82.85;100347.91;5010433;28;20049;-83
2021/12/28 11:42:01;;;;;;;23.65;16.48;;;;;;;0.71;83.07;100316.50;5009501;28;20378;-76
2021/12/28 11:44:29;;;;;;;22.95;15.23;;;;;;;0.55;86.14;100333.97;5011863;28;20137;-77
2021/12/28 11:46:57;;;;;;;27.92;16.17;;;;;;;0.70;86.91;100312.16;4997354;28;20578;-75
2021/12/28 11:49:27;;;;;;;24.02;17.42;;;;;;;1.29;86.76;100323.84;4999014;28;20052;-78
2021/12/28 11:51:54;;;;;;;24.42;17.67;;;;;;;1.53;85.24;100347.06;5010263;28;20080;-84
2021/12/28 11:54:22;;;;;;;31.88;18.20;;;;;;;1.68;84.48;100334.66;5004181;28;20053;-79
2021/12/28 11:56:55;;;;;;;33.08;22.23;;;;;;;0.62;85.83;100338.56;5013827;28;20156;-76
2021/12/28 11:59:26;;;;;;;32.92;22.65;;;;;;;0.24;87.81;100333.63;5011850;28;20046;-81
2021/12/28 12:01:51;;;;;;;32.03;22.10;;;;;;;0.78;87.68;100365.88;5005744;28;20436;-73